Time;durP1;ratioP1;P1;durP2;ratioP2;P2;SDS_P1;SDS_P2;PMS_P1;PMS_P2;Temp;Humidity;BMP_temperature;BMP_pressure;BME280_temperature;BME280_humidity;BME280_pressure;Samples;Min_cycle;Max_cycle;Signal;HPM_P1;HPM_P2
2023/12/24 00:00:00;;;;;;;19.02;2.90;;;8.70;99.90;;;;;;5013327;28;20601;-79
2023/12/24 00:02:26;;;;;;;13.60;3.17;;;8.70;99.90;;;;;;5013698;28;20057;-80
2023/12/24 00:04:52;;;;;;;14.32;3.28;;;8.70;99.90;;;;;;5013116;28;20065;-79
2023/12/24 00:07:18;;;;;;;11.82;3.30;;;9.10;99.90;;;;;;5012115;28;20093;-80
2023/12/24 00:09:44;;;;;;;11.73;3.00;;;9.20;99.90;;;;;;5011123;28;20054;-79
2023/12/24 00:12:09;;;;;;;15.15;3.13;;;8.90;99.90;;;;;;5012747;28;20061;-79
2023/12/24 00:14:37;;;;;;;18.08;3.53;;;8.70;99.90;;;;;;5005400;28;20049;-81
2023/12/24 00:17:03;;;;;;;15.30;3.08;;;8.70;99.90;;;;;;5012273;28;20060;-80
2023/12/24 00:19:29;;;;;;;19.27;3.47;;;8.70;99.90;;;;;;5012551;28;20050;-81
2023/12/24 00:21:54;;;;;;;10.02;3.13;;;8.70;99.90;;;;;;5012539;28;20418;-80
2023/12/24 00:24:20;;;;;;;17.15;3.83;;;8.80;99.90;;;;;;5013834;28;20049;-79
2023/12/24 00:26:46;;;;;;;13.25;3.13;;;8.80;99.90;;;;;;5013218;28;20053;-79
2023/12/24 00:29:12;;;;;;;18.27;3.45;;;8.80;99.90;;;;;;5013499;28;20050;-80
2023/12/24 00:31:38;;;;;;;12.50;3.42;;;8.80;99.90;;;;;;5013153;28;20045;-80
2023/12/24 00:34:03;;;;;;;18.08;3.17;;;9.30;99.90;;;;;;5012143;28;20465;-81
2023/12/24 00:36:29;;;;;;;12.27;3.47;;;8.80;99.90;;;;;;5007684;28;20053;-81
2023/12/24 00:38:55;;;;;;;15.48;3.95;;;8.90;99.90;;;;;;5006911;28;20053;-79
2023/12/24 00:41:20;;;;;;;16.05;3.67;;;9.20;99.90;;;;;;5012946;28;20520;-79
2023/12/24 00:43:46;;;;;;;14.88;3.55;;;8.80;99.90;;;;;;5013185;28;20501;-79
2023/12/24 00:46:16;;;;;;;12.55;3.22;;;8.80;99.90;;;;;;5012454;28;20045;-79
2023/12/24 00:48:42;;;;;;;12.85;2.90;;;8.80;99.90;;;;;;5011608;28;20402;-80
2023/12/24 00:51:07;;;;;;;14.55;3.97;;;8.80;99.90;;;;;;5012021;28;20095;-79
2023/12/24 00:53:33;;;;;;;21.05;3.28;;;8.80;99.90;;;;;;5012141;28;20099;-80
2023/12/24 00:55:59;;;;;;;21.65;3.88;;;8.80;99.90;;;;;;5012157;28;20100;-80
2023/12/24 00:58:26;;;;;;;16.55;4.10;;;9.10;99.90;;;;;;5011450;28;20386;-80
2023/12/24 01:00:52;;;;;;;15.27;3.47;;;8.80;99.90;;;;;;5011616;28;20100;-79
2023/12/24 01:03:18;;;;;;;20.30;4.03;;;8.80;99.90;;;;;;5012244;28;20046;-79
2023/12/24 01:05:43;;;;;;;18.20;4.00;;;8.80;99.90;;;;;;5011257;28;20049;-79
2023/12/24 01:08:09;;;;;;;19.83;4.70;;;9.00;99.90;;;;;;5011367;28;20046;-79
2023/12/24 01:10:35;;;;;;;13.27;3.75;;;8.80;99.90;;;;;;5011900;28;20041;-80
2023/12/24 01:13:00;;;;;;;17.83;4.07;;;8.80;99.90;;;;;;5006479;28;20042;-81
2023/12/24 01:15:26;;;;;;;20.58;4.00;;;9.10;99.90;;;;;;4999312;28;20046;-79
2023/12/24 01:17:52;;;;;;;18.17;3.80;;;8.80;99.90;;;;;;5007092;28;20045;-79
2023/12/24 01:20:18;;;;;;;19.38;4.22;;;8.80;99.90;;;;;;5011589;28;20045;-79
2023/12/24 01:22:45;;;;;;;13.65;3.80;;;8.80;99.90;;;;;;5011980;28;20094;-79
2023/12/24 01:25:11;;;;;;;16.35;3.88;;;8.80;99.90;;;;;;5015225;28;20050;-80
2023/12/24 01:27:37;;;;;;;16.58;4.10;;;9.20;99.90;;;;;;5013939;28;20053;-81
2023/12/24 01:30:03;;;;;;;18.20;3.92;;;8.80;99.90;;;;;;5014804;28;20060;-80
2023/12/24 01:32:29;;;;;;;15.52;3.92;;;8.80;99.90;;;;;;5009118;28;20150;-80
2023/12/24 01:34:55;;;;;;;16.60;3.63;;;8.80;99.90;;;;;;5011749;28;20565;-80
2023/12/24 01:37:20;;;;;;;15.93;3.92;;;8.70;99.90;;;;;;5015565;28;20046;-79
2023/12/24 01:39:46;;;;;;;14.90;3.10;;;8.80;99.90;;;;;;5014885;28;20094;-79
2023/12/24 01:42:11;;;;;;;18.23;3.72;;;8.80;99.90;;;;;;5015528;28;20080;-80
2023/12/24 01:44:37;;;;;;;12.73;3.22;;;8.80;99.90;;;;;;5015573;28;20413;-81
2023/12/24 01:47:03;;;;;;;14.57;3.47;;;8.80;99.90;;;;;;4998646;28;20099;-78
2023/12/24 01:49:29;;;;;;;17.15;4.25;;;8.80;99.90;;;;;;5014649;28;20068;-79
2023/12/24 01:51:55;;;;;;;11.50;4.57;;;8.80;99.90;;;;;;5014925;28;20498;-79
2023/12/24 01:54:22;;;;;;;14.52;3.95;;;8.80;99.90;;;;;;5010396;28;20045;-80
2023/12/24 01:56:48;;;;;;;9.70;2.50;;;8.80;99.90;;;;;;5008974;28;20735;-79
2023/12/24 01:59:15;;;;;;;10.30;2.20;;;8.80;99.90;;;;;;5018540;28;20045;-79
2023/12/24 02:01:41;;;;;;;13.43;2.88;;;8.80;99.90;;;;;;5010962;28;20555;-80
2023/12/24 02:04:07;;;;;;;6.43;2.25;;;8.90;99.90;;;;;;4995570;28;20129;-80
2023/12/24 02:06:34;;;;;;;8.98;2.53;;;9.10;99.90;;;;;;5008298;28;20522;-79
2023/12/24 02:09:00;;;;;;;7.63;2.10;;;8.80;99.90;;;;;;5014509;28;20057;-79
2023/12/24 02:11:26;;;;;;;11.00;2.55;;;8.80;99.90;;;;;;5014620;28;20065;-80
2023/12/24 02:13:52;;;;;;;9.57;2.83;;;8.80;99.90;;;;;;5014852;28;20050;-79
2023/12/24 02:16:21;;;;;;;7.05;2.33;;;8.80;99.90;;;;;;5014238;28;20050;-79
2023/12/24 02:18:47;;;;;;;9.05;2.10;;;8.80;99.90;;;;;;5011367;28;20985;-79
2023/12/24 02:21:13;;;;;;;6.53;1.90;;;8.80;99.90;;;;;;5010220;28;20525;-78
2023/12/24 02:23:38;;;;;;;7.57;2.17;;;8.80;99.90;;;;;;5013639;28;20077;-79
2023/12/24 02:26:11;;;;;;;10.57;2.92;;;9.10;99.90;;;;;;5014159;28;20041;-79
2023/12/24 02:28:42;;;;;;;13.63;2.97;;;8.80;99.90;;;;;;5006089;28;20042;-79
2023/12/24 02:31:10;;;;;;;8.02;2.40;;;9.00;99.90;;;;;;5013703;28;20121;-79
2023/12/24 02:33:41;;;;;;;9.18;2.70;;;8.80;99.90;;;;;;5004758;28;20498;-80
2023/12/24 02:36:09;;;;;;;10.43;2.85;;;9.00;99.90;;;;;;5020602;28;20053;-79
2023/12/24 02:38:35;;;;;;;11.57;3.28;;;8.80;99.90;;;;;;5020496;28;20049;-79
2023/12/24 02:41:02;;;;;;;11.20;3.30;;;9.10;99.90;;;;;;5013643;28;20062;-79
2023/12/24 02:43:27;;;;;;;11.57;3.10;;;8.80;99.90;;;;;;5014331;28;20054;-79
2023/12/24 02:45:53;;;;;;;9.05;3.40;;;8.80;99.90;;;;;;5013678;28;20046;-79
2023/12/24 02:48:19;;;;;;;14.30;4.07;;;8.80;99.90;;;;;;5013845;28;20049;-79
2023/12/24 02:50:44;;;;;;;10.98;4.22;;;8.80;99.90;;;;;;5012991;28;20053;-79
2023/12/24 02:53:10;;;;;;;17.90;4.80;;;8.90;99.90;;;;;;5014044;28;20129;-79
2023/12/24 02:55:36;;;;;;;14.20;3.72;;;8.90;99.90;;;;;;5013878;28;20042;-80
2023/12/24 02:58:01;;;;;;;17.40;4.50;;;8.90;99.90;;;;;;5021083;28;20050;-79
2023/12/24 03:00:27;;;;;;;11.45;3.42;;;8.90;99.90;;;;;;5013203;28;20046;-78
2023/12/24 03:02:53;;;;;;;14.90;4.00;;;8.90;99.90;;;;;;5013127;28;20053;-79
2023/12/24 03:05:18;;;;;;;13.98;3.30;;;9.30;99.90;;;;;;5006680;28;20034;-80
2023/12/24 03:07:44;;;;;;;12.85;3.35;;;8.90;99.90;;;;;;4998182;28;20050;-79
2023/12/24 03:10:09;;;;;;;9.18;2.90;;;8.90;99.90;;;;;;5013115;28;20038;-79
2023/12/24 03:12:35;;;;;;;7.95;2.55;;;8.90;99.90;;;;;;5013423;28;20037;-79
2023/12/24 03:15:01;;;;;;;11.25;3.25;;;9.00;99.90;;;;;;5013242;28;20448;-80
2023/12/24 03:17:26;;;;;;;12.15;2.83;;;8.90;99.90;;;;;;5013214;28;20049;-79
2023/12/24 03:19:52;;;;;;;8.43;3.38;;;8.90;99.90;;;;;;5013325;28;20054;-80
2023/12/24 03:22:17;;;;;;;13.15;3.50;;;8.90;99.90;;;;;;5013253;28;20080;-79
2023/12/24 03:24:43;;;;;;;7.97;2.80;;;9.30;99.90;;;;;;5013270;28;20462;-78
2023/12/24 03:27:09;;;;;;;13.00;2.83;;;8.90;99.90;;;;;;5013115;28;20045;-80
2023/12/24 03:29:34;;;;;;;7.68;2.50;;;9.00;99.90;;;;;;5013059;28;20034;-79
2023/12/24 03:32:00;;;;;;;10.35;2.47;;;9.00;99.90;;;;;;5012595;28;20452;-79
2023/12/24 03:34:26;;;;;;;9.05;2.45;;;9.00;99.90;;;;;;5009707;28;20081;-79
2023/12/24 03:36:51;;;;;;;11.82;2.92;;;9.00;99.90;;;;;;4993699;28;20053;-78
2023/12/24 03:39:17;;;;;;;9.57;3.17;;;9.00;99.90;;;;;;4993880;28;20469;-79
2023/12/24 03:41:42;;;;;;;12.75;3.72;;;9.00;99.90;;;;;;4998038;28;20113;-80
2023/12/24 03:44:08;;;;;;;7.63;3.30;;;9.00;99.90;;;;;;5009923;28;20038;-79
2023/12/24 03:46:34;;;;;;;10.45;3.22;;;9.00;99.90;;;;;;5008689;28;20438;-79
2023/12/24 03:48:59;;;;;;;6.18;3.00;;;9.00;99.90;;;;;;5002208;28;20681;-79
2023/12/24 03:51:25;;;;;;;7.82;3.03;;;8.90;99.90;;;;;;5012605;28;20379;-80
2023/12/24 03:53:51;;;;;;;7.30;2.40;;;9.00;99.90;;;;;;5012853;28;20045;-79
2023/12/24 03:56:17;;;;;;;5.75;2.60;;;9.00;99.90;;;;;;5012869;28;20104;-79
2023/12/24 03:58:43;;;;;;;7.25;3.20;;;9.00;99.90;;;;;;5012463;28;20458;-79
2023/12/24 04:01:09;;;;;;;8.27;3.00;;;9.00;99.90;;;;;;5004378;28;20088;-81
2023/12/24 04:03:35;;;;;;;5.85;3.20;;;9.00;99.90;;;;;;5006202;28;20035;-78
2023/12/24 04:06:01;;;;;;;5.85;2.60;;;9.30;99.90;;;;;;4993247;28;20042;-80
2023/12/24 04:08:27;;;;;;;8.00;2.80;;;9.00;99.90;;;;;;4998117;28;20034;-79
2023/12/24 04:10:52;;;;;;;6.93;2.63;;;9.10;99.90;;;;;;5009604;28;20180;-79
2023/12/24 04:13:18;;;;;;;5.05;2.60;;;9.00;99.90;;;;;;5012380;28;20513;-79
2023/12/24 04:15:44;;;;;;;5.80;2.20;;;9.00;99.90;;;;;;5012399;28;20076;-79
2023/12/24 04:18:09;;;;;;;7.55;2.80;;;9.00;99.90;;;;;;5012160;28;20050;-79
2023/12/24 04:20:35;;;;;;;8.00;2.20;;;9.00;99.90;;;;;;5012152;28;20046;-80
2023/12/24 04:23:01;;;;;;;4.78;1.85;;;9.00;99.90;;;;;;5012081;28;20046;-80
2023/12/24 04:25:26;;;;;;;5.85;2.28;;;9.10;99.90;;;;;;5011702;28;20500;-80
2023/12/24 04:27:52;;;;;;;4.43;2.10;;;9.10;99.90;;;;;;5012321;28;20180;-79
2023/12/24 04:30:17;;;;;;;6.30;2.20;;;9.00;99.90;;;;;;5009004;28;20041;-79
2023/12/24 04:32:43;;;;;;;5.05;1.42;;;9.10;99.90;;;;;;5008041;28;20050;-79
2023/12/24 04:35:10;;;;;;;3.47;1.60;;;9.10;99.90;;;;;;4997357;28;20110;-80
2023/12/24 04:37:36;;;;;;;6.07;2.17;;;9.20;99.90;;;;;;5000640;28;20041;-79
2023/12/24 04:40:01;;;;;;;6.07;1.65;;;9.10;99.90;;;;;;5011828;28;20045;-79
2023/12/24 04:42:27;;;;;;;3.63;1.90;;;9.10;99.90;;;;;;5011997;28;20490;-78
2023/12/24 04:44:53;;;;;;;5.30;1.88;;;9.10;99.90;;;;;;5011644;28;20050;-80
2023/12/24 04:47:18;;;;;;;4.32;1.40;;;9.10;99.90;;;;;;5011728;28;20470;-79
2023/12/24 04:49:44;;;;;;;3.17;1.70;;;9.10;99.90;;;;;;5006451;28;20037;-79
2023/12/24 04:52:10;;;;;;;3.90;1.73;;;9.10;99.90;;;;;;5012018;28;20466;-78
2023/12/24 04:54:37;;;;;;;2.85;1.38;;;9.10;99.90;;;;;;5011704;28;20061;-80
2023/12/24 04:57:03;;;;;;;4.57;2.08;;;9.10;99.90;;;;;;5018698;28;20781;-79
2023/12/24 04:59:28;;;;;;;3.45;1.60;;;9.10;99.90;;;;;;5025952;28;20041;-79
2023/12/24 05:01:54;;;;;;;3.55;1.40;;;9.10;99.90;;;;;;5011205;28;20129;-79
2023/12/24 05:04:19;;;;;;;3.45;1.55;;;9.10;99.90;;;;;;5002330;28;20115;-79
2023/12/24 05:06:45;;;;;;;3.17;1.63;;;9.20;99.90;;;;;;5005274;28;20116;-79
2023/12/24 05:09:11;;;;;;;3.67;1.83;;;9.20;99.90;;;;;;5006416;28;20474;-79
2023/12/24 05:11:39;;;;;;;4.10;1.52;;;9.20;99.90;;;;;;5012724;28;20060;-79
2023/12/24 05:14:05;;;;;;;2.92;1.48;;;9.20;99.90;;;;;;5011719;28;20046;-80
2023/12/24 05:16:30;;;;;;;3.03;1.20;;;9.20;99.90;;;;;;5011301;28;20046;-79
2023/12/24 05:18:56;;;;;;;5.15;1.95;;;9.20;99.90;;;;;;5011333;28;20507;-79
2023/12/24 05:21:22;;;;;;;5.18;1.88;;;9.20;99.90;;;;;;5011514;28;20045;-80
2023/12/24 05:23:47;;;;;;;4.13;1.58;;;9.30;99.90;;;;;;5011501;28;20469;-78
2023/12/24 05:26:13;;;;;;;5.47;1.67;;;9.30;99.90;;;;;;5011740;28;20132;-79
2023/12/24 05:28:39;;;;;;;4.00;1.55;;;9.20;99.90;;;;;;5011187;28;20129;-79
2023/12/24 05:31:05;;;;;;;5.75;2.00;;;9.30;99.90;;;;;;4985084;28;20050;-80
2023/12/24 05:33:30;;;;;;;4.45;1.80;;;9.20;99.90;;;;;;5011308;28;20048;-78
2023/12/24 05:35:56;;;;;;;4.50;1.70;;;9.30;99.90;;;;;;5016473;28;20033;-78
2023/12/24 05:38:21;;;;;;;4.47;1.77;;;9.30;99.90;;;;;;5010090;28;20043;-78
2023/12/24 05:40:47;;;;;;;6.00;2.05;;;9.30;99.90;;;;;;5007071;28;20054;-78
2023/12/24 05:43:13;;;;;;;6.95;2.17;;;9.20;99.90;;;;;;5011237;28;20046;-79
2023/12/24 05:45:38;;;;;;;4.15;2.00;;;9.30;99.90;;;;;;5011644;28;20629;-79
2023/12/24 05:48:04;;;;;;;6.15;2.30;;;9.30;99.90;;;;;;5011049;28;20524;-79
2023/12/24 05:50:30;;;;;;;5.55;2.28;;;9.30;99.90;;;;;;5011299;28;20132;-79
2023/12/24 05:52:56;;;;;;;7.07;2.58;;;9.30;99.90;;;;;;5010950;28;20050;-79
2023/12/24 05:55:21;;;;;;;7.13;2.33;;;9.40;99.90;;;;;;5010991;28;20046;-79
2023/12/24 05:57:47;;;;;;;6.18;2.17;;;9.40;99.90;;;;;;5010842;28;20042;-79
2023/12/24 06:00:13;;;;;;;6.38;2.30;;;9.60;99.90;;;;;;5011278;28;20121;-80
2023/12/24 06:02:39;;;;;;;6.18;2.53;;;9.40;99.90;;;;;;4992026;28;20082;-79
2023/12/24 06:05:05;;;;;;;7.53;2.53;;;9.80;99.90;;;;;;4996577;28;20123;-78
2023/12/24 06:07:31;;;;;;;7.13;2.22;;;9.40;99.90;;;;;;5011053;28;20049;-79
2023/12/24 06:09:56;;;;;;;7.93;2.70;;;9.40;99.90;;;;;;5011555;28;20045;-78
2023/12/24 06:12:22;;;;;;;7.00;2.55;;;9.50;99.90;;;;;;5014795;28;20508;-79
2023/12/24 06:14:47;;;;;;;9.15;2.78;;;9.40;99.90;;;;;;4988551;28;20053;-79
2023/12/24 06:17:13;;;;;;;8.32;2.90;;;9.60;99.90;;;;;;5014663;28;20050;-79
2023/12/24 06:19:38;;;;;;;8.65;3.10;;;9.50;99.90;;;;;;5014736;28;20054;-78
2023/12/24 06:22:05;;;;;;;9.50;3.00;;;9.50;99.90;;;;;;5014948;28;20046;-79
2023/12/24 06:24:31;;;;;;;8.45;2.72;;;9.50;99.90;;;;;;5008269;28;20045;-78
2023/12/24 06:26:56;;;;;;;7.95;3.45;;;9.40;99.90;;;;;;4995092;28;20093;-78
2023/12/24 06:29:22;;;;;;;9.70;3.25;;;9.40;99.90;;;;;;4987501;28;20532;-78
2023/12/24 06:31:48;;;;;;;14.05;3.90;;;9.90;99.90;;;;;;5014280;28;20041;-79
2023/12/24 06:34:14;;;;;;;12.98;4.03;;;9.50;99.90;;;;;;5014599;28;20052;-78
2023/12/24 06:36:39;;;;;;;13.23;3.60;;;9.70;99.90;;;;;;5014559;28;20049;-79
2023/12/24 06:39:05;;;;;;;19.35;4.38;;;9.60;99.90;;;;;;4998421;28;20042;-84
2023/12/24 06:41:31;;;;;;;12.95;4.28;;;9.70;99.90;;;;;;4995718;28;20046;-78
2023/12/24 06:43:57;;;;;;;14.35;4.57;;;9.60;99.90;;;;;;5008049;28;20068;-79
2023/12/24 06:46:24;;;;;;;14.32;4.30;;;9.60;99.90;;;;;;5014504;28;20050;-78
2023/12/24 06:48:53;;;;;;;15.90;4.38;;;9.60;99.90;;;;;;5014351;28;20099;-79
2023/12/24 06:51:19;;;;;;;10.60;3.97;;;9.60;99.90;;;;;;5013629;28;20265;-79
2023/12/24 06:53:44;;;;;;;16.65;4.90;;;9.60;99.90;;;;;;5006759;28;20046;-79
2023/12/24 06:56:10;;;;;;;19.70;5.13;;;9.70;99.90;;;;;;5013595;28;20060;-79
2023/12/24 06:58:36;;;;;;;13.73;4.70;;;9.70;99.90;;;;;;5011505;28;20053;-78
2023/12/24 07:01:02;;;;;;;20.33;4.80;;;9.80;99.90;;;;;;5005260;28;20561;-78
2023/12/24 07:03:28;;;;;;;24.30;5.55;;;9.70;99.90;;;;;;5014285;28;20044;-79
2023/12/24 07:05:54;;;;;;;17.02;4.60;;;9.70;99.90;;;;;;5014454;28;20042;-78
2023/12/24 07:08:22;;;;;;;24.85;5.55;;;9.70;99.90;;;;;;5013525;28;20129;-79
2023/12/24 07:10:47;;;;;;;17.35;4.85;;;9.70;99.90;;;;;;5013329;28;20089;-78
2023/12/24 07:13:13;;;;;;;17.67;5.55;;;9.80;99.90;;;;;;5013131;28;20089;-79
2023/12/24 07:15:40;;;;;;;21.70;4.65;;;9.70;99.90;;;;;;5013862;28;20060;-79
2023/12/24 07:18:06;;;;;;;15.25;5.18;;;9.70;99.90;;;;;;4997443;28;20056;-79
2023/12/24 07:20:31;;;;;;;20.15;5.20;;;9.70;99.90;;;;;;5009959;28;20046;-79
2023/12/24 07:23:06;;;;;;;18.15;4.65;;;9.70;99.90;;;;;;5010433;28;20050;-85
2023/12/24 07:25:32;;;;;;;18.38;4.78;;;9.70;99.90;;;;;;5013595;28;20073;-88
2023/12/24 07:27:57;;;;;;;17.38;4.50;;;9.70;99.90;;;;;;5007865;28;20494;-85
2023/12/24 07:30:23;;;;;;;17.05;4.78;;;9.70;99.90;;;;;;5016845;28;20088;-85
2023/12/24 07:32:49;;;;;;;22.13;5.20;;;9.80;99.90;;;;;;5013255;28;20058;-84
2023/12/24 07:35:16;;;;;;;19.77;4.80;;;9.70;99.90;;;;;;5014008;28;20053;-87
2023/12/24 07:37:42;;;;;;;16.90;5.20;;;9.70;99.90;;;;;;5013564;28;20379;-90
2023/12/24 07:40:08;;;;;;;16.92;5.13;;;9.80;99.90;;;;;;4997043;28;20050;-89
2023/12/24 07:42:35;;;;;;;16.25;4.93;;;9.80;99.90;;;;;;5009610;28;20050;-85
2023/12/24 07:45:01;;;;;;;23.90;5.40;;;9.80;99.90;;;;;;5013529;28;20482;-85
2023/12/24 07:47:26;;;;;;;19.83;5.60;;;10.20;99.90;;;;;;5013020;28;20049;-84
2023/12/24 07:49:52;;;;;;;26.17;5.00;;;10.30;99.90;;;;;;5009808;28;20045;-85
2023/12/24 07:52:18;;;;;;;21.60;5.28;;;9.90;99.90;;;;;;5014887;28;20080;-85
2023/12/24 07:54:43;;;;;;;22.55;4.90;;;10.10;99.90;;;;;;5013075;28;20084;-84
2023/12/24 07:57:09;;;;;;;20.75;5.50;;;10.10;99.90;;;;;;5009884;28;20069;-83
2023/12/24 07:59:35;;;;;;;19.60;5.15;;;9.90;99.90;;;;;;5009974;28;20034;-84
2023/12/24 08:02:00;;;;;;;18.48;5.00;;;9.90;99.90;;;;;;5011183;28;20050;-85
2023/12/24 08:04:26;;;;;;;17.70;5.00;;;10.00;99.90;;;;;;5013018;28;20042;-82
2023/12/24 08:06:52;;;;;;;16.10;3.95;;;10.10;99.90;;;;;;5003350;28;20417;-84
2023/12/24 08:09:17;;;;;;;25.27;4.82;;;9.90;99.90;;;;;;5006233;28;20057;-84
2023/12/24 08:11:43;;;;;;;18.75;5.40;;;10.00;99.90;;;;;;5009838;28;20049;-86
2023/12/24 08:14:09;;;;;;;10.98;5.20;;;10.30;99.90;;;;;;5011407;28;20151;-84
2023/12/24 08:16:35;;;;;;;17.65;4.82;;;10.00;99.90;;;;;;5011503;28;20049;-84
2023/12/24 08:19:02;;;;;;;15.80;5.20;;;9.90;99.90;;;;;;5007973;28;20082;-84
2023/12/24 08:21:28;;;;;;;18.63;5.05;;;10.00;99.90;;;;;;5005141;28;20049;-84
2023/12/24 08:23:53;;;;;;;27.00;6.43;;;10.00;99.90;;;;;;5009841;28;20069;-83
2023/12/24 08:26:19;;;;;;;20.65;4.82;;;10.10;99.90;;;;;;5025828;28;20551;-83
2023/12/24 08:28:45;;;;;;;13.80;4.53;;;10.10;99.90;;;;;;5019263;28;20069;-81
2023/12/24 08:31:10;;;;;;;20.88;4.88;;;10.10;99.90;;;;;;5020210;28;20095;-82
2023/12/24 08:33:37;;;;;;;22.58;5.00;;;10.10;99.90;;;;;;5006670;28;20057;-83
2023/12/24 08:36:04;;;;;;;17.38;4.22;;;10.10;99.90;;;;;;4992014;28;20497;-84
2023/12/24 08:38:29;;;;;;;21.90;5.13;;;10.10;99.90;;;;;;5002640;28;20066;-83
2023/12/24 08:40:55;;;;;;;18.55;4.13;;;10.10;99.90;;;;;;5002636;28;20069;-85
2023/12/24 08:43:21;;;;;;;22.50;4.82;;;10.10;99.90;;;;;;5032146;28;20124;-84
2023/12/24 08:45:47;;;;;;;22.10;4.43;;;10.10;99.90;;;;;;5013579;28;20717;-84
2023/12/24 08:48:12;;;;;;;23.90;5.65;;;10.10;99.90;;;;;;4998857;28;20124;-85
2023/12/24 08:50:38;;;;;;;20.15;4.65;;;10.20;99.90;;;;;;5007630;28;20046;-83
2023/12/24 08:53:04;;;;;;;21.25;4.80;;;10.10;99.90;;;;;;5012424;28;20549;-84
2023/12/24 08:55:30;;;;;;;15.63;4.63;;;10.30;99.90;;;;;;5011761;28;20409;-84
2023/12/24 08:57:56;;;;;;;23.60;4.70;;;10.20;99.90;;;;;;5012833;28;20053;-87
2023/12/24 09:00:22;;;;;;;26.27;5.47;;;10.20;99.90;;;;;;5012930;28;20089;-83
2023/12/24 09:02:47;;;;;;;20.60;4.00;;;10.20;99.90;;;;;;5011713;28;20049;-85
2023/12/24 09:05:14;;;;;;;14.15;3.80;;;10.20;99.90;;;;;;5012369;28;20129;-85
2023/12/24 09:07:39;;;;;;;24.13;5.38;;;10.50;99.90;;;;;;5005453;28;20125;-84
2023/12/24 09:10:05;;;;;;;21.95;5.07;;;10.20;99.90;;;;;;5011908;28;20128;-84
2023/12/24 09:12:31;;;;;;;23.00;5.68;;;10.20;99.90;;;;;;5011953;28;20092;-85
2023/12/24 09:14:57;;;;;;;21.92;4.47;;;10.20;99.90;;;;;;5012425;28;20125;-90
2023/12/24 09:17:22;;;;;;;20.58;4.05;;;10.40;99.90;;;;;;4995662;28;20041;-87
2023/12/24 09:19:48;;;;;;;24.45;5.65;;;10.30;99.90;;;;;;5012139;28;20117;-89
2023/12/24 09:22:13;;;;;;;21.08;5.63;;;10.30;99.90;;;;;;5010735;28;20046;-85
2023/12/24 09:24:39;;;;;;;22.48;5.45;;;10.30;99.90;;;;;;5011198;28;20050;-88
2023/12/24 09:27:05;;;;;;;16.05;4.78;;;10.30;99.90;;;;;;5012584;28;20041;-81
2023/12/24 09:29:30;;;;;;;18.67;5.43;;;10.30;99.90;;;;;;5012690;28;20041;-82
2023/12/24 09:31:56;;;;;;;27.15;6.10;;;10.30;99.90;;;;;;5012416;28;20391;-82
2023/12/24 09:34:22;;;;;;;24.23;6.13;;;10.30;99.90;;;;;;5012250;28;20466;-83
2023/12/24 09:36:47;;;;;;;22.42;5.28;;;10.40;99.90;;;;;;5012489;28;20053;-80
2023/12/24 09:39:13;;;;;;;20.98;5.03;;;10.30;99.90;;;;;;5012118;28;20042;-79
2023/12/24 09:41:38;;;;;;;20.33;4.82;;;10.40;99.90;;;;;;5013047;28;20065;-81
2023/12/24 09:44:08;;;;;;;23.50;5.25;;;10.40;99.90;;;;;;5012383;28;20413;-80
2023/12/24 09:46:34;;;;;;;17.98;5.28;;;10.40;99.90;;;;;;5015738;28;20084;-81
2023/12/24 09:49:00;;;;;;;14.82;5.03;;;10.40;99.90;;;;;;5015673;28;20081;-81
2023/12/24 09:51:26;;;;;;;19.33;5.35;;;10.50;99.90;;;;;;5014752;28;20077;-82
2023/12/24 09:53:54;;;;;;;26.15;6.20;;;10.70;99.90;;;;;;5003341;28;20050;-82
2023/12/24 09:56:20;;;;;;;19.15;5.28;;;10.50;99.90;;;;;;5016248;28;20049;-83
2023/12/24 09:58:47;;;;;;;24.02;5.47;;;10.50;99.90;;;;;;5007516;28;20053;-83
2023/12/24 10:01:12;;;;;;;28.13;6.30;;;10.60;99.90;;;;;;5012800;28;20400;-82
2023/12/24 10:03:38;;;;;;;20.75;6.00;;;10.40;99.90;;;;;;5015236;28;20122;-84
2023/12/24 10:06:05;;;;;;;14.43;4.75;;;10.50;99.90;;;;;;4996416;28;20038;-85
2023/12/24 10:08:31;;;;;;;20.17;5.95;;;10.50;99.90;;;;;;5009650;28;20049;-85
2023/12/24 10:11:10;;;;;;;23.42;6.22;;;10.50;99.90;;;;;;5015695;28;20050;-85
2023/12/24 10:13:36;;;;;;;17.65;5.88;;;10.50;99.90;;;;;;5013743;28;20080;-84
2023/12/24 10:16:05;;;;;;;17.25;5.80;;;10.50;99.90;;;;;;5014423;28;20085;-82
2023/12/24 10:18:32;;;;;;;20.45;5.97;;;10.50;99.90;;;;;;5006371;28;20056;-81
2023/12/24 10:21:10;;;;;;;21.75;6.13;;;10.50;99.90;;;;;;5013844;28;21485;-82
2023/12/24 10:23:36;;;;;;;18.90;5.82;;;10.50;99.90;;;;;;4992327;28;20057;-80
2023/12/24 10:26:06;;;;;;;21.80;6.82;;;10.80;99.90;;;;;;5002148;28;20049;-86
2023/12/24 10:28:32;;;;;;;20.33;7.13;;;10.60;99.90;;;;;;5015117;28;20046;-87
2023/12/24 10:31:07;;;;;;;18.95;6.85;;;10.60;99.90;;;;;;5010895;28;20053;-84
2023/12/24 10:33:33;;;;;;;21.10;5.85;;;10.60;99.90;;;;;;5014569;28;20065;-82
2023/12/24 10:35:58;;;;;;;19.73;6.13;;;10.60;99.90;;;;;;5015156;28;20050;-85
2023/12/24 10:38:26;;;;;;;16.63;6.28;;;10.60;99.90;;;;;;5014976;28;20057;-84
2023/12/24 10:40:52;;;;;;;20.08;6.15;;;10.60;99.90;;;;;;5002052;28;20046;-84
2023/12/24 10:43:18;;;;;;;18.70;6.32;;;10.60;99.90;;;;;;5022155;28;20377;-84
2023/12/24 10:45:45;;;;;;;17.30;6.25;;;10.60;99.90;;;;;;5020755;28;20084;-81
2023/12/24 10:48:11;;;;;;;22.98;6.38;;;10.70;99.90;;;;;;5005663;28;20046;-82
2023/12/24 10:50:37;;;;;;;21.67;6.82;;;10.70;99.90;;;;;;5010674;28;20046;-81
2023/12/24 10:53:02;;;;;;;14.73;7.15;;;10.70;99.90;;;;;;5015013;28;20095;-82
2023/12/24 10:55:29;;;;;;;16.95;7.25;;;10.70;99.90;;;;;;5015608;28;20041;-84
2023/12/24 10:58:11;;;;;;;18.42;6.80;;;10.80;99.90;;;;;;5011533;28;20104;-81
2023/12/24 11:00:37;;;;;;;15.90;6.68;;;10.80;99.90;;;;;;5020890;28;20050;-81
2023/12/24 11:03:03;;;;;;;21.48;6.30;;;10.80;99.90;;;;;;5014764;28;20092;-83
2023/12/24 11:05:44;;;;;;;22.67;7.28;;;10.80;99.90;;;;;;5014140;28;20096;-84
2023/12/24 11:08:19;;;;;;;17.77;6.28;;;10.90;99.90;;;;;;5014417;28;20057;-86
2023/12/24 11:10:51;;;;;;;19.95;6.93;;;10.90;99.90;;;;;;5007397;28;20042;-81
2023/12/24 11:13:32;;;;;;;18.88;6.55;;;11.00;99.90;;;;;;5007844;28;20057;-83
2023/12/24 11:15:59;;;;;;;16.70;6.22;;;11.00;99.90;;;;;;5008763;28;20049;-86
2023/12/24 11:18:56;;;;;;;18.98;6.30;;;11.10;99.90;;;;;;5013791;28;20077;-82
2023/12/24 11:21:22;;;;;;;18.15;6.65;;;11.00;99.90;;;;;;5004555;28;20053;-82
2023/12/24 11:24:19;;;;;;;15.70;6.00;;;11.00;99.90;;;;;;5005212;28;20050;-87
2023/12/24 11:26:54;;;;;;;13.63;5.60;;;11.00;99.90;;;;;;5004670;28;20516;-85
2023/12/24 11:29:48;;;;;;;16.08;6.22;;;11.20;99.90;;;;;;4987254;28;20052;-84
2023/12/24 11:32:26;;;;;;;18.80;6.10;;;11.10;99.90;;;;;;5009238;28;20069;-88
2023/12/24 11:34:58;;;;;;;19.80;6.18;;;11.10;99.90;;;;;;5011381;28;20046;-88
2023/12/24 11:37:34;;;;;;;20.80;6.53;;;11.10;99.90;;;;;;5014015;28;20520;-87
2023/12/24 11:40:14;;;;;;;23.50;6.18;;;11.10;99.90;;;;;;5010336;28;20136;-85
2023/12/24 11:42:50;;;;;;;16.20;4.95;;;11.10;99.90;;;;;;4995866;28;20089;-84
2023/12/24 11:45:29;;;;;;;13.38;5.07;;;11.10;99.90;;;;;;5007572;28;20049;-86
2023/12/24 11:47:55;;;;;;;11.98;4.10;;;11.10;99.90;;;;;;5009868;28;20046;-85
2023/12/24 11:50:21;;;;;;;16.85;4.50;;;11.20;99.90;;;;;;5013260;28;20048;-84
2023/12/24 11:52:48;;;;;;;15.00;4.25;;;11.10;99.90;;;;;;5007426;28;20054;-84
2023/12/24 11:55:15;;;;;;;13.80;4.90;;;11.10;99.90;;;;;;5009475;28;20034;-84
2023/12/24 11:57:41;;;;;;;17.92;5.47;;;11.10;99.90;;;;;;5013616;28;20082;-84
2023/12/24 12:00:28;;;;;;;15.68;4.20;;;11.10;99.90;;;;;;5013602;28;20077;-84
2023/12/24 12:02:58;;;;;;;11.25;4.55;;;11.20;99.90;;;;;;5000872;28;20046;-83
2023/12/24 12:05:25;;;;;;;15.45;5.72;;;11.20;99.90;;;;;;4996108;28;20525;-84
2023/12/24 12:07:51;;;;;;;14.38;4.95;;;11.20;99.90;;;;;;4994893;28;20050;-84
2023/12/24 12:10:17;;;;;;;11.65;5.22;;;11.20;99.90;;;;;;5006208;28;20053;-84
2023/12/24 12:12:43;;;;;;;15.02;5.38;;;11.20;99.90;;;;;;4993330;28;20382;-84
2023/12/24 12:15:10;;;;;;;16.40;4.88;;;11.20;99.90;;;;;;4995881;28;20050;-84
2023/12/24 12:17:36;;;;;;;18.30;5.35;;;11.30;99.90;;;;;;5008306;28;20501;-83
2023/12/24 12:20:03;;;;;;;21.58;5.65;;;11.20;99.90;;;;;;5000258;28;20050;-83
2023/12/24 12:22:29;;;;;;;15.45;5.35;;;11.20;99.90;;;;;;5011431;28;20551;-82
2023/12/24 12:24:55;;;;;;;18.23;5.35;;;11.20;99.90;;;;;;5005911;28;20073;-83
2023/12/24 12:27:20;;;;;;;13.88;5.55;;;11.30;99.90;;;;;;5012482;28;20065;-85
2023/12/24 12:29:46;;;;;;;17.10;5.00;;;11.30;99.90;;;;;;5011564;28;20486;-83
2023/12/24 12:32:12;;;;;;;16.88;4.38;;;11.30;99.90;;;;;;5005906;28;20046;-86
2023/12/24 12:34:39;;;;;;;16.38;4.70;;;11.30;99.90;;;;;;5014582;28;20100;-85
2023/12/24 12:37:05;;;;;;;14.00;4.13;;;11.20;99.90;;;;;;5012685;28;20052;-83
2023/12/24 12:39:30;;;;;;;17.25;5.00;;;11.30;99.90;;;;;;5011426;28;20493;-84
2023/12/24 12:41:57;;;;;;;17.25;4.13;;;11.30;99.90;;;;;;5006321;28;20046;-84